createdAt,value
2023-09-21T00:00:16.940Z,0
2023-09-21T00:01:33.081Z,0
2023-09-21T00:02:49.204Z,0
2023-09-21T00:04:05.336Z,0
2023-09-21T00:05:21.470Z,0
2023-09-21T00:06:37.595Z,0
2023-09-21T00:07:52.750Z,0
2023-09-21T00:09:08.892Z,0
2023-09-21T00:10:25.017Z,0
2023-09-21T00:11:41.148Z,0
2023-09-21T00:12:57.276Z,0
2023-09-21T00:14:13.414Z,0
2023-09-21T00:15:29.540Z,0
2023-09-21T00:16:45.681Z,0
2023-09-21T00:18:01.804Z,0
2023-09-21T00:19:17.943Z,0
2023-09-21T00:20:34.070Z,0
2023-09-21T00:21:50.203Z,0
2023-09-21T00:23:06.341Z,0
2023-09-21T00:24:22.468Z,0
2023-09-21T00:25:37.622Z,0
2023-09-21T00:26:53.750Z,0
2023-09-21T00:28:09.869Z,0
2023-09-21T00:29:26.018Z,0
2023-09-21T00:30:42.142Z,0
2023-09-21T00:31:58.281Z,0
2023-09-21T00:33:14.410Z,0
2023-09-21T00:34:30.533Z,0
2023-09-21T00:35:46.683Z,0
2023-09-21T00:37:02.802Z,0
2023-09-21T00:38:18.941Z,0
2023-09-21T00:39:35.066Z,0
2023-09-21T00:40:51.200Z,0
2023-09-21T00:42:06.339Z,0
2023-09-21T00:43:22.489Z,0
2023-09-21T00:44:38.616Z,0
2023-09-21T00:45:54.750Z,0
2023-09-21T00:47:10.882Z,0
2023-09-21T00:48:27.014Z,0
2023-09-21T00:49:43.145Z,0
2023-09-21T00:50:59.275Z,0
2023-09-21T00:52:15.410Z,0
2023-09-21T00:53:31.543Z,0
2023-09-21T00:54:47.673Z,0
2023-09-21T00:56:03.800Z,0
2023-09-21T00:57:19.937Z,0
2023-09-21T00:58:36.070Z,0
2023-09-21T00:59:52.201Z,0
2023-09-21T01:01:07.351Z,0
2023-09-21T01:02:23.482Z,0
2023-09-21T01:03:39.602Z,0
2023-09-21T01:04:55.748Z,0
2023-09-21T01:06:11.878Z,0
2023-09-21T01:07:28.019Z,0
2023-09-21T01:08:44.151Z,0
2023-09-21T01:10:00.277Z,0
2023-09-21T01:11:16.413Z,0
2023-09-21T01:12:32.542Z,0
2023-09-21T01:13:48.674Z,0
2023-09-21T01:15:04.805Z,0
2023-09-21T01:16:20.931Z,0
2023-09-21T01:17:36.087Z,0
2023-09-21T01:18:52.217Z,0
2023-09-21T01:20:08.355Z,0
2023-09-21T01:21:24.489Z,0
2023-09-21T01:22:40.612Z,0
2023-09-21T01:23:56.748Z,0
2023-09-21T01:25:12.884Z,0
2023-09-21T01:26:29.011Z,0
2023-09-21T01:27:45.153Z,0
2023-09-21T01:29:01.275Z,0
2023-09-21T01:30:17.408Z,0
2023-09-21T01:31:33.542Z,0
2023-09-21T01:32:49.670Z,0
2023-09-21T01:34:04.826Z,0
2023-09-21T01:35:20.959Z,0
2023-09-21T01:36:37.086Z,0
2023-09-21T01:37:53.215Z,0
2023-09-21T01:39:09.354Z,0
2023-09-21T01:40:25.480Z,0
2023-09-21T01:41:41.614Z,0
2023-09-21T01:42:57.738Z,0
2023-09-21T01:44:13.883Z,0
2023-09-21T01:45:30.008Z,0
2023-09-21T01:46:46.142Z,0
2023-09-21T01:48:02.271Z,0
2023-09-21T01:49:18.411Z,0
2023-09-21T01:50:34.543Z,0
2023-09-21T01:51:50.667Z,0
2023-09-21T01:53:06.798Z,0
2023-09-21T01:54:21.966Z,0
2023-09-21T01:55:38.090Z,0
2023-09-21T01:56:54.232Z,0
2023-09-21T01:58:10.361Z,0
2023-09-21T01:59:26.491Z,0
2023-09-21T02:00:42.617Z,0
2023-09-21T02:01:58.757Z,0
2023-09-21T02:03:14.889Z,0
2023-09-21T02:04:31.027Z,0
2023-09-21T02:05:47.150Z,0
2023-09-21T02:07:03.289Z,0
2023-09-21T02:08:19.415Z,0
2023-09-21T02:09:35.553Z,0
2023-09-21T02:10:50.699Z,0
2023-09-21T02:12:06.837Z,0
2023-09-21T02:13:22.960Z,0
2023-09-21T02:14:39.102Z,0
2023-09-21T02:15:55.231Z,0
2023-09-21T02:17:11.361Z,0
2023-09-21T02:18:27.497Z,0
2023-09-21T02:19:43.629Z,0
2023-09-21T02:20:59.755Z,0
2023-09-21T02:22:15.884Z,0
2023-09-21T02:23:32.016Z,0
2023-09-21T02:24:48.155Z,0
2023-09-21T02:26:04.282Z,0
2023-09-21T02:27:19.435Z,0
2023-09-21T02:28:35.558Z,0
2023-09-21T02:29:51.705Z,0
2023-09-21T02:31:07.831Z,0
2023-09-21T02:32:23.964Z,0
2023-09-21T02:33:40.100Z,0
2023-09-21T02:34:56.232Z,0
2023-09-21T02:36:12.361Z,0
2023-09-21T02:37:28.490Z,0
2023-09-21T02:38:44.622Z,0
2023-09-21T02:40:00.762Z,0
2023-09-21T02:41:16.895Z,0
2023-09-21T02:42:33.026Z,0
2023-09-21T02:43:49.157Z,0
2023-09-21T02:45:04.300Z,0
2023-09-21T02:46:20.435Z,0
2023-09-21T02:47:36.571Z,0
2023-09-21T02:48:52.701Z,0
2023-09-21T02:50:08.837Z,0
2023-09-21T02:51:24.961Z,0
2023-09-21T02:52:41.103Z,0
2023-09-21T02:53:57.230Z,0
2023-09-21T02:55:13.361Z,0
2023-09-21T02:56:29.492Z,0
2023-09-21T02:57:45.624Z,0
2023-09-21T02:59:01.761Z,0
2023-09-21T03:00:17.892Z,0
2023-09-21T03:01:33.035Z,0
2023-09-21T03:02:49.176Z,0
2023-09-21T03:04:05.301Z,0
2023-09-21T03:05:21.433Z,0
2023-09-21T03:06:37.567Z,0
2023-09-21T03:07:53.700Z,0
2023-09-21T03:09:09.833Z,0
2023-09-21T03:10:25.964Z,0
2023-09-21T03:11:42.105Z,0
2023-09-21T03:12:58.220Z,0
2023-09-21T03:14:14.356Z,0
2023-09-21T03:15:30.485Z,0
2023-09-21T03:16:46.622Z,0
2023-09-21T03:18:02.000Z,0
2023-09-21T03:19:17.907Z,0
2023-09-21T03:20:34.044Z,0
2023-09-21T03:21:50.172Z,0
2023-09-21T03:23:06.302Z,0
2023-09-21T03:24:22.430Z,0
2023-09-21T03:25:38.563Z,0
2023-09-21T03:26:54.694Z,0
2023-09-21T03:28:10.832Z,0
2023-09-21T03:29:26.968Z,0
2023-09-21T03:30:43.095Z,0
2023-09-21T03:31:59.227Z,0
2023-09-21T03:33:15.358Z,0
2023-09-21T03:34:31.487Z,0
2023-09-21T03:35:46.638Z,0
2023-09-21T03:37:02.771Z,0
2023-09-21T03:38:18.911Z,0
2023-09-21T03:39:35.034Z,0
2023-09-21T03:40:51.156Z,0
2023-09-21T03:42:07.305Z,0
2023-09-21T03:43:23.438Z,0
2023-09-21T03:44:39.561Z,0
2023-09-21T03:45:55.695Z,0
2023-09-21T03:47:11.827Z,0
2023-09-21T03:48:27.961Z,0
2023-09-21T03:49:44.099Z,0
2023-09-21T03:51:00.229Z,0
2023-09-21T03:52:16.355Z,0
2023-09-21T03:53:31.506Z,0
2023-09-21T03:54:47.640Z,0
2023-09-21T03:56:03.770Z,0
2023-09-21T03:57:19.901Z,0
2023-09-21T03:58:36.037Z,0
2023-09-21T03:59:52.170Z,0
2023-09-21T04:01:08.298Z,0
2023-09-21T04:02:24.428Z,0
2023-09-21T04:03:40.563Z,0
2023-09-21T04:04:56.690Z,0
2023-09-21T04:06:12.829Z,0
2023-09-21T04:07:28.963Z,0
2023-09-21T04:08:45.101Z,0
2023-09-21T04:10:00.243Z,0
2023-09-21T04:11:16.373Z,0
2023-09-21T04:12:32.505Z,0
2023-09-21T04:13:48.643Z,0
2023-09-21T04:15:04.768Z,0
2023-09-21T04:16:20.902Z,0
2023-09-21T04:17:37.033Z,0
2023-09-21T04:18:53.152Z,0
2023-09-21T04:20:09.294Z,0
2023-09-21T04:21:25.430Z,0
2023-09-21T04:22:41.553Z,0
2023-09-21T04:23:57.700Z,0
2023-09-21T04:25:13.830Z,0
2023-09-21T04:26:28.974Z,0
2023-09-21T04:27:45.114Z,0
2023-09-21T04:29:01.247Z,0
2023-09-21T04:30:17.373Z,0
2023-09-21T04:31:33.500Z,0
2023-09-21T04:32:49.644Z,0
2023-09-21T04:34:05.768Z,0
2023-09-21T04:35:21.907Z,0
2023-09-21T04:36:38.038Z,0
2023-09-21T04:37:54.167Z,0
2023-09-21T04:39:10.297Z,0
2023-09-21T04:40:26.431Z,0
2023-09-21T04:41:42.563Z,0
2023-09-21T04:42:58.694Z,0
2023-09-21T04:44:13.848Z,0
2023-09-21T04:45:29.976Z,0
2023-09-21T04:46:46.105Z,0
2023-09-21T04:48:02.243Z,0
2023-09-21T04:49:18.372Z,0
2023-09-21T04:50:34.510Z,0
2023-09-21T04:51:50.641Z,4
2023-09-21T04:53:06.765Z,4
2023-09-21T04:54:22.909Z,4
2023-09-21T04:55:39.037Z,4
2023-09-21T04:56:55.161Z,4
2023-09-21T04:58:11.303Z,8
2023-09-21T04:59:27.420Z,12
2023-09-21T05:00:43.560Z,12
2023-09-21T05:01:58.708Z,16
2023-09-21T05:03:14.840Z,24
2023-09-21T05:04:30.970Z,32
2023-09-21T05:05:47.110Z,36
2023-09-21T05:07:03.240Z,40
2023-09-21T05:08:19.368Z,52
2023-09-21T05:09:35.504Z,56
2023-09-21T05:10:51.632Z,64
2023-09-21T05:12:07.766Z,72
2023-09-21T05:13:23.899Z,76
2023-09-21T05:14:40.030Z,84
2023-09-21T05:15:56.150Z,92
2023-09-21T05:17:12.292Z,100
2023-09-21T05:18:28.435Z,120
2023-09-21T05:19:43.577Z,152
2023-09-21T05:20:59.708Z,168
2023-09-21T05:22:15.844Z,176
2023-09-21T05:23:31.974Z,200
2023-09-21T05:24:48.103Z,224
2023-09-21T05:26:04.224Z,236
2023-09-21T05:27:20.369Z,240
2023-09-21T05:28:36.498Z,252
2023-09-21T05:29:52.630Z,256
2023-09-21T05:31:08.764Z,256
2023-09-21T05:32:24.895Z,256
2023-09-21T05:33:41.031Z,256
2023-09-21T05:34:57.000Z,264
2023-09-21T05:36:13.288Z,272
2023-09-21T05:37:28.440Z,276
2023-09-21T05:38:44.585Z,284
2023-09-21T05:40:00.703Z,288
2023-09-21T05:41:16.841Z,304
2023-09-21T05:42:32.971Z,320
2023-09-21T05:43:49.107Z,344
2023-09-21T05:45:05.227Z,372
2023-09-21T05:46:21.369Z,400
2023-09-21T05:47:37.497Z,424
2023-09-21T05:48:53.650Z,460
2023-09-21T05:50:09.763Z,508
2023-09-21T05:51:25.896Z,544
2023-09-21T05:52:42.017Z,548
2023-09-21T05:53:58.167Z,536
2023-09-21T05:55:13.311Z,544
2023-09-21T05:56:29.443Z,576
2023-09-21T05:57:45.579Z,636
2023-09-21T05:59:01.713Z,696
2023-09-21T06:00:17.840Z,744
2023-09-21T06:01:33.972Z,796
2023-09-21T06:02:50.107Z,860
2023-09-21T06:04:06.231Z,912
2023-09-21T06:05:22.361Z,936
2023-09-21T06:06:38.506Z,924
2023-09-21T06:07:54.638Z,892
2023-09-21T06:09:10.758Z,904
2023-09-21T06:10:25.930Z,980
2023-09-21T06:11:42.053Z,1104
2023-09-21T06:12:58.000Z,1184
2023-09-21T06:14:14.314Z,1212
2023-09-21T06:15:30.450Z,1204
2023-09-21T06:16:46.583Z,1200
2023-09-21T06:18:02.711Z,1192
2023-09-21T06:19:18.000Z,1200
2023-09-21T06:20:34.987Z,1264
2023-09-21T06:21:51.100Z,1384
2023-09-21T06:23:07.244Z,1532
2023-09-21T06:24:23.377Z,1672
2023-09-21T06:25:39.506Z,1700
2023-09-21T06:26:55.640Z,1640
2023-09-21T06:28:10.798Z,1568
2023-09-21T06:29:26.928Z,1564
2023-09-21T06:30:43.063Z,1632
2023-09-21T06:31:59.190Z,1720
2023-09-21T06:33:15.322Z,1768
2023-09-21T06:34:31.440Z,1732
2023-09-21T06:35:47.590Z,1660
2023-09-21T06:37:03.713Z,1628
2023-09-21T06:38:19.853Z,1636
2023-09-21T06:39:35.977Z,1688
2023-09-21T06:40:52.101Z,1740
2023-09-21T06:42:08.246Z,1776
2023-09-21T06:43:24.373Z,1800
2023-09-21T06:44:40.508Z,1844
2023-09-21T06:45:55.651Z,1892
2023-09-21T06:47:11.789Z,1916
2023-09-21T06:48:27.920Z,1940
2023-09-21T06:49:44.057Z,1924
2023-09-21T06:51:00.194Z,1868
2023-09-21T06:52:16.323Z,1884
2023-09-21T06:53:32.448Z,2008
2023-09-21T06:54:48.588Z,2200
2023-09-21T06:56:04.722Z,2440
2023-09-21T06:57:20.847Z,2724
2023-09-21T06:58:36.989Z,3004
2023-09-21T06:59:53.117Z,3356
2023-09-21T07:01:09.245Z,3628
2023-09-21T07:02:24.392Z,3692
2023-09-21T07:03:40.534Z,3760
2023-09-21T07:04:56.653Z,3796
2023-09-21T07:06:12.790Z,3752
2023-09-21T07:07:28.924Z,3684
2023-09-21T07:08:45.059Z,3804
2023-09-21T07:10:01.186Z,3960
2023-09-21T07:11:17.326Z,4004
2023-09-21T07:12:33.452Z,4144
2023-09-21T07:13:49.581Z,4432
2023-09-21T07:15:05.710Z,4804
2023-09-21T07:16:21.857Z,5104
2023-09-21T07:17:37.978Z,5080
2023-09-21T07:18:53.132Z,5036
2023-09-21T07:20:09.257Z,5120
2023-09-21T07:21:25.396Z,5360
2023-09-21T07:22:41.520Z,5636
2023-09-21T07:23:57.660Z,5720
2023-09-21T07:25:13.790Z,5952
2023-09-21T07:26:29.927Z,6200
2023-09-21T07:27:46.060Z,6348
2023-09-21T07:29:02.194Z,6300
2023-09-21T07:30:18.328Z,6476
2023-09-21T07:31:34.457Z,6044
2023-09-21T07:32:50.592Z,5956
2023-09-21T07:34:06.712Z,5528
2023-09-21T07:35:21.861Z,5316
2023-09-21T07:36:37.999Z,5204
2023-09-21T07:37:54.126Z,5184
2023-09-21T07:39:10.262Z,5128
2023-09-21T07:40:26.385Z,4660
2023-09-21T07:41:42.523Z,4460
2023-09-21T07:42:58.652Z,4360
2023-09-21T07:44:14.787Z,4320
2023-09-21T07:45:30.906Z,3872
2023-09-21T07:46:47.060Z,3160
2023-09-21T07:48:03.185Z,3072
2023-09-21T07:49:19.318Z,3224
2023-09-21T07:50:35.449Z,3468
2023-09-21T07:51:50.599Z,3996
2023-09-21T07:53:06.725Z,4096
2023-09-21T07:54:22.864Z,4348
2023-09-21T07:55:38.987Z,3764
2023-09-21T07:56:55.117Z,3388
2023-09-21T07:58:11.257Z,3448
2023-09-21T07:59:27.393Z,3592
2023-09-21T08:00:43.527Z,4648
2023-09-21T08:01:59.656Z,5384
2023-09-21T08:03:15.781Z,5052
2023-09-21T08:04:31.922Z,5420
2023-09-21T08:05:48.044Z,5652
2023-09-21T08:07:04.178Z,5904
2023-09-21T08:08:20.311Z,6420
2023-09-21T08:09:36.446Z,6676
2023-09-21T08:10:51.591Z,6456
2023-09-21T08:12:07.724Z,6276
2023-09-21T08:13:23.851Z,6788
2023-09-21T08:14:39.997Z,7460
2023-09-21T08:15:56.123Z,7932
2023-09-21T08:17:12.251Z,8236
2023-09-21T08:18:28.384Z,8468
2023-09-21T08:19:44.512Z,8664
2023-09-21T08:21:00.635Z,8772
2023-09-21T08:22:16.781Z,8236
2023-09-21T08:23:32.910Z,7884
2023-09-21T08:24:49.040Z,7376
2023-09-21T08:26:05.173Z,7124
2023-09-21T08:27:20.321Z,7024
2023-09-21T08:28:36.463Z,7192
2023-09-21T08:29:52.577Z,7420
2023-09-21T08:31:08.725Z,7460
2023-09-21T08:32:24.856Z,7408
2023-09-21T08:33:40.984Z,7184
2023-09-21T08:34:57.117Z,7168
2023-09-21T08:36:13.252Z,7480
2023-09-21T08:37:29.381Z,7888
2023-09-21T08:38:45.512Z,8148
2023-09-21T08:40:01.647Z,7556
2023-09-21T08:41:17.783Z,5616
2023-09-21T08:42:33.902Z,3952
2023-09-21T08:43:49.067Z,3164
2023-09-21T08:45:05.183Z,3192
2023-09-21T08:46:21.321Z,2756
2023-09-21T08:47:37.454Z,2092
2023-09-21T08:48:53.592Z,1812
2023-09-21T08:50:09.722Z,2532
2023-09-21T08:51:25.841Z,2468
2023-09-21T08:52:41.988Z,2420
2023-09-21T08:53:58.112Z,2372
2023-09-21T08:55:14.244Z,2336
2023-09-21T08:56:30.375Z,2344
2023-09-21T08:57:46.508Z,2528
2023-09-21T08:59:02.645Z,2824
2023-09-21T09:00:17.792Z,2704
2023-09-21T09:01:33.916Z,2844
2023-09-21T09:02:50.051Z,2992
2023-09-21T09:04:06.191Z,2800
2023-09-21T09:05:22.323Z,2392
2023-09-21T09:06:38.450Z,2064
2023-09-21T09:07:54.584Z,2744
2023-09-21T09:09:10.719Z,2724
2023-09-21T09:10:26.846Z,2768
2023-09-21T09:11:42.983Z,2332
2023-09-21T09:12:59.100Z,3060
2023-09-21T09:14:15.251Z,3484
2023-09-21T09:15:31.380Z,3448
2023-09-21T09:16:47.503Z,3144
2023-09-21T09:18:02.652Z,2968
2023-09-21T09:19:18.787Z,2884
2023-09-21T09:20:34.926Z,2852
2023-09-21T09:21:51.056Z,2992
2023-09-21T09:23:07.181Z,3700
2023-09-21T09:24:23.318Z,5416
2023-09-21T09:25:39.446Z,5452
2023-09-21T09:26:55.581Z,4428
2023-09-21T09:28:11.713Z,4520
2023-09-21T09:29:27.000Z,5288
2023-09-21T09:30:43.982Z,6844
2023-09-21T09:32:00.115Z,7024
2023-09-21T09:33:16.240Z,7468
2023-09-21T09:34:31.388Z,8972
2023-09-21T09:35:47.522Z,8700
2023-09-21T09:37:03.659Z,9868
2023-09-21T09:38:19.781Z,20480
2023-09-21T09:39:35.920Z,12116
2023-09-21T09:40:52.055Z,9376
2023-09-21T09:42:08.189Z,8592
2023-09-21T09:43:24.312Z,8100
2023-09-21T09:44:40.447Z,7560
2023-09-21T09:45:56.581Z,9056
2023-09-21T09:47:12.715Z,7520
2023-09-21T09:48:28.841Z,7888
2023-09-21T09:49:44.980Z,12404
2023-09-21T09:51:00.131Z,10600
2023-09-21T09:52:16.255Z,17760
2023-09-21T09:53:32.395Z,56128
2023-09-21T09:54:48.528Z,58208
2023-09-21T09:56:04.652Z,61184
2023-09-21T09:57:20.785Z,31232
2023-09-21T09:58:36.910Z,22880
2023-09-21T09:59:53.038Z,15592
2023-09-21T10:01:09.183Z,12244
2023-09-21T10:02:25.313Z,15588
2023-09-21T10:03:41.440Z,10740
2023-09-21T10:04:57.583Z,10380
2023-09-21T10:06:13.711Z,9904
2023-09-21T10:07:28.867Z,10160
2023-09-21T10:08:44.988Z,10752
2023-09-21T10:10:01.127Z,11032
2023-09-21T10:11:17.257Z,9768
2023-09-21T10:12:33.391Z,9944
2023-09-21T10:13:49.517Z,9960
2023-09-21T10:15:05.653Z,9552
2023-09-21T10:16:21.778Z,9064
2023-09-21T10:17:37.915Z,9120
2023-09-21T10:18:54.041Z,9216
2023-09-21T10:20:10.182Z,9528
2023-09-21T10:21:26.312Z,10620
2023-09-21T10:22:42.451Z,8392
2023-09-21T10:23:57.591Z,7780
2023-09-21T10:25:12.743Z,6736
2023-09-21T10:26:28.887Z,6204
2023-09-21T10:27:45.016Z,6120
2023-09-21T10:29:01.141Z,6312
2023-09-21T10:30:17.285Z,6024
2023-09-21T10:31:33.427Z,5532
2023-09-21T10:32:49.545Z,5100
2023-09-21T10:34:05.682Z,4928
2023-09-21T10:35:21.804Z,4536
2023-09-21T10:36:37.938Z,4224
2023-09-21T10:37:54.078Z,3992
2023-09-21T10:39:10.200Z,3796
2023-09-21T10:40:26.334Z,3596
2023-09-21T10:41:41.479Z,3396
2023-09-21T10:42:57.620Z,3204
2023-09-21T10:44:13.746Z,3028
2023-09-21T10:45:29.880Z,2848
2023-09-21T10:46:46.012Z,2708
2023-09-21T10:48:02.154Z,2608
2023-09-21T10:49:18.277Z,2508
2023-09-21T10:50:34.410Z,2360
2023-09-21T10:51:50.552Z,2276
2023-09-21T10:53:06.675Z,2164
2023-09-21T10:54:22.807Z,2020
2023-09-21T10:55:38.947Z,1980
2023-09-21T10:56:55.074Z,1828
2023-09-21T10:58:11.201Z,1656
2023-09-21T10:59:26.360Z,1620
2023-09-21T11:00:42.492Z,1572
2023-09-21T11:01:58.608Z,1528
2023-09-21T11:03:14.755Z,1552
2023-09-21T11:04:30.882Z,1740
2023-09-21T11:05:47.010Z,1884
2023-09-21T11:07:03.150Z,1788
2023-09-21T11:08:19.272Z,1680
2023-09-21T11:09:35.414Z,1644
2023-09-21T11:10:51.546Z,1588
2023-09-21T11:12:07.674Z,1696
2023-09-21T11:13:23.801Z,1852
2023-09-21T11:14:39.940Z,2048
2023-09-21T11:15:55.000Z,2184
2023-09-21T11:17:11.220Z,2280
2023-09-21T11:18:27.347Z,2516
2023-09-21T11:19:43.480Z,2592
2023-09-21T11:20:59.617Z,2940
2023-09-21T11:22:15.753Z,3240
2023-09-21T11:23:31.886Z,3516
2023-09-21T11:24:48.019Z,3796
2023-09-21T11:26:04.147Z,4060
2023-09-21T11:27:20.281Z,4388
2023-09-21T11:28:36.415Z,4680
2023-09-21T11:29:52.539Z,4908
2023-09-21T11:31:08.670Z,5116
2023-09-21T11:32:23.818Z,5260
2023-09-21T11:33:39.950Z,5404
2023-09-21T11:34:56.093Z,5616
2023-09-21T11:36:12.220Z,5832
2023-09-21T11:37:28.345Z,6072
2023-09-21T11:38:44.489Z,6256
2023-09-21T11:40:00.620Z,6428
2023-09-21T11:41:16.750Z,6528
2023-09-21T11:42:32.886Z,6644
2023-09-21T11:43:49.008Z,6724
2023-09-21T11:45:05.140Z,6828
2023-09-21T11:46:21.277Z,6924
2023-09-21T11:47:37.399Z,6868
2023-09-21T11:48:53.524Z,6672
2023-09-21T11:50:08.692Z,6556
2023-09-21T11:51:24.819Z,6496
2023-09-21T11:52:40.957Z,6492
2023-09-21T11:53:57.087Z,6552
2023-09-21T11:55:13.220Z,6660
2023-09-21T11:56:29.351Z,6652
2023-09-21T11:57:45.477Z,6676
2023-09-21T11:59:01.616Z,6736
2023-09-21T12:00:17.740Z,6752
2023-09-21T12:01:33.872Z,6708
2023-09-21T12:02:50.006Z,6636
2023-09-21T12:04:06.149Z,6664
2023-09-21T12:05:22.281Z,6832
2023-09-21T12:06:37.420Z,7052
2023-09-21T12:07:53.551Z,7252
2023-09-21T12:09:09.687Z,7288
2023-09-21T12:10:25.818Z,7308
2023-09-21T12:11:41.953Z,7296
2023-09-21T12:12:58.080Z,7240
2023-09-21T12:14:14.213Z,7140
2023-09-21T12:15:30.339Z,7004
2023-09-21T12:16:46.476Z,6844
2023-09-21T12:18:02.616Z,6760
2023-09-21T12:19:18.740Z,6808
2023-09-21T12:20:34.880Z,6764
2023-09-21T12:21:51.006Z,6676
2023-09-21T12:23:06.160Z,6648
2023-09-21T12:24:22.290Z,6720
2023-09-21T12:25:38.420Z,6816
2023-09-21T12:26:54.562Z,6824
2023-09-21T12:28:10.690Z,6900
2023-09-21T12:29:26.819Z,6988
2023-09-21T12:30:42.948Z,6972
2023-09-21T12:31:59.081Z,6984
2023-09-21T12:33:15.222Z,6996
2023-09-21T12:34:31.355Z,7100
2023-09-21T12:35:47.486Z,7320
2023-09-21T12:37:03.603Z,7532
2023-09-21T12:38:19.741Z,7624
2023-09-21T12:39:34.891Z,7564
2023-09-21T12:40:51.024Z,7384
2023-09-21T12:42:07.153Z,7060
2023-09-21T12:43:23.281Z,6684
2023-09-21T12:44:39.420Z,6276
2023-09-21T12:45:55.554Z,6068
2023-09-21T12:47:11.687Z,5840
2023-09-21T12:48:27.814Z,5576
2023-09-21T12:49:43.948Z,5200
2023-09-21T12:51:00.082Z,4944
2023-09-21T12:52:16.220Z,4864
2023-09-21T12:53:32.355Z,4860
2023-09-21T12:54:48.479Z,4988
2023-09-21T12:56:03.613Z,5260
2023-09-21T12:57:19.764Z,5352
2023-09-21T12:58:35.896Z,5120
2023-09-21T12:59:52.025Z,4720
2023-09-21T13:01:08.157Z,4328
2023-09-21T13:02:24.286Z,4268
2023-09-21T13:03:40.420Z,4148
2023-09-21T13:04:56.551Z,4488
2023-09-21T13:06:12.682Z,4556
2023-09-21T13:07:28.814Z,4204
2023-09-21T13:08:44.948Z,4208
2023-09-21T13:10:01.082Z,4700
2023-09-21T13:11:17.214Z,4812
2023-09-21T13:12:33.346Z,4792
2023-09-21T13:13:48.503Z,4576
2023-09-21T13:15:04.635Z,4740
2023-09-21T13:16:20.759Z,4948
2023-09-21T13:17:36.893Z,4980
2023-09-21T13:18:53.018Z,4980
2023-09-21T13:20:09.155Z,5272
2023-09-21T13:21:25.285Z,5560
2023-09-21T13:22:41.423Z,5876
2023-09-21T13:23:57.553Z,6044
2023-09-21T13:25:13.680Z,6056
2023-09-21T13:26:29.811Z,5792
2023-09-21T13:27:45.942Z,5788
2023-09-21T13:29:02.079Z,5648
2023-09-21T13:30:18.208Z,5412
2023-09-21T13:31:33.366Z,5180
2023-09-21T13:32:49.491Z,4892
2023-09-21T13:34:05.623Z,4828
2023-09-21T13:35:21.757Z,4932
2023-09-21T13:36:37.888Z,4880
2023-09-21T13:37:54.017Z,4892
2023-09-21T13:39:10.151Z,4932
2023-09-21T13:40:26.289Z,4912
2023-09-21T13:41:42.413Z,5212
2023-09-21T13:42:58.553Z,5944
2023-09-21T13:44:14.682Z,6148
2023-09-21T13:45:30.811Z,5688
2023-09-21T13:46:46.943Z,5112
2023-09-21T13:48:02.094Z,4744
2023-09-21T13:49:18.226Z,4384
2023-09-21T13:50:34.360Z,4288
2023-09-21T13:51:50.476Z,4352
2023-09-21T13:53:06.623Z,4456
2023-09-21T13:54:22.755Z,4732
2023-09-21T13:55:38.880Z,5208
2023-09-21T13:56:55.013Z,5644
2023-09-21T13:58:11.152Z,6064
2023-09-21T13:59:27.280Z,6220
2023-09-21T14:00:43.415Z,6260
2023-09-21T14:01:59.546Z,6376
2023-09-21T14:03:15.688Z,6260
2023-09-21T14:04:30.834Z,6396
2023-09-21T14:05:46.955Z,6840
2023-09-21T14:07:03.087Z,7400
2023-09-21T14:08:19.209Z,7676
2023-09-21T14:09:35.358Z,7384
2023-09-21T14:10:51.490Z,6752
2023-09-21T14:12:07.621Z,5624
2023-09-21T14:13:23.754Z,5068
2023-09-21T14:14:39.884Z,5072
2023-09-21T14:15:56.021Z,5068
2023-09-21T14:17:12.150Z,5084
2023-09-21T14:18:28.287Z,5008
2023-09-21T14:19:44.408Z,5344
2023-09-21T14:21:00.551Z,5352
2023-09-21T14:22:15.693Z,5008
2023-09-21T14:23:31.824Z,4224
2023-09-21T14:24:47.957Z,4228
2023-09-21T14:26:04.079Z,5420
2023-09-21T14:27:20.224Z,5316
2023-09-21T14:28:36.351Z,5032
2023-09-21T14:29:52.491Z,5344
2023-09-21T14:31:08.621Z,5148
2023-09-21T14:32:24.744Z,4856
2023-09-21T14:33:40.880Z,4800
2023-09-21T14:34:57.016Z,4908
2023-09-21T14:36:13.149Z,4712
2023-09-21T14:37:29.276Z,4236
2023-09-21T14:38:44.424Z,4004
2023-09-21T14:39:59.585Z,4008
2023-09-21T14:41:15.719Z,3692
2023-09-21T14:42:31.851Z,3060
2023-09-21T14:43:47.983Z,2408
2023-09-21T14:45:04.121Z,2136
2023-09-21T14:46:20.243Z,2156
2023-09-21T14:47:36.373Z,2456
2023-09-21T14:48:52.500Z,2628
2023-09-21T14:50:08.641Z,2556
2023-09-21T14:51:24.780Z,2588
2023-09-21T14:52:40.895Z,2444
2023-09-21T14:53:57.039Z,2248
2023-09-21T14:55:13.169Z,2084
2023-09-21T14:56:29.303Z,2024
2023-09-21T14:57:44.447Z,2140
2023-09-21T14:59:00.577Z,2408
2023-09-21T15:00:16.715Z,2856
2023-09-21T15:01:32.838Z,2844
2023-09-21T15:02:48.983Z,2396
2023-09-21T15:04:05.112Z,2432
2023-09-21T15:05:21.000Z,3064
2023-09-21T15:06:37.369Z,3848
2023-09-21T15:07:53.502Z,4284
2023-09-21T15:09:09.631Z,4340
2023-09-21T15:10:25.772Z,4172
2023-09-21T15:11:41.901Z,3512
2023-09-21T15:12:58.014Z,2852
2023-09-21T15:14:14.182Z,2496
2023-09-21T15:15:29.321Z,2152
2023-09-21T15:16:45.447Z,2056
2023-09-21T15:18:01.576Z,2296
2023-09-21T15:19:17.711Z,2300
2023-09-21T15:20:33.838Z,2320
2023-09-21T15:21:49.975Z,2360
2023-09-21T15:23:06.104Z,2276
2023-09-21T15:24:22.236Z,2036
2023-09-21T15:25:38.378Z,1836
2023-09-21T15:26:54.510Z,1576
2023-09-21T15:28:10.630Z,1632
2023-09-21T15:29:26.773Z,1532
2023-09-21T15:30:42.000Z,1324
2023-09-21T15:31:59.030Z,1120
2023-09-21T15:33:15.000Z,936
2023-09-21T15:34:31.304Z,920
2023-09-21T15:35:47.430Z,1008
2023-09-21T15:37:03.562Z,1112
2023-09-21T15:38:19.680Z,1348
2023-09-21T15:39:35.825Z,1824
2023-09-21T15:40:51.956Z,1892
2023-09-21T15:42:08.087Z,1784
2023-09-21T15:43:23.000Z,1808
2023-09-21T15:44:39.367Z,1756
2023-09-21T15:45:55.482Z,1600
2023-09-21T15:47:11.632Z,1468
2023-09-21T15:48:27.769Z,1384
2023-09-21T15:49:43.902Z,1312
2023-09-21T15:51:00.030Z,1232
2023-09-21T15:52:16.170Z,1128
2023-09-21T15:53:32.291Z,1116
2023-09-21T15:54:48.430Z,1252
2023-09-21T15:56:04.556Z,1476
2023-09-21T15:57:20.691Z,1568
2023-09-21T15:58:36.830Z,1540
2023-09-21T15:59:52.953Z,1360
2023-09-21T16:01:09.096Z,1032
2023-09-21T16:02:25.220Z,824
2023-09-21T16:03:40.361Z,852
2023-09-21T16:04:56.501Z,1032
2023-09-21T16:06:12.632Z,1156
2023-09-21T16:07:28.761Z,1212
2023-09-21T16:08:44.901Z,1172
2023-09-21T16:10:01.030Z,1040
2023-09-21T16:11:17.000Z,844
2023-09-21T16:12:33.289Z,736
2023-09-21T16:13:49.432Z,692
2023-09-21T16:15:05.558Z,668
2023-09-21T16:16:21.698Z,680
2023-09-21T16:17:37.820Z,696
2023-09-21T16:18:53.958Z,656
2023-09-21T16:20:10.091Z,656
2023-09-21T16:21:25.000Z,704
2023-09-21T16:22:41.369Z,776
2023-09-21T16:23:57.501Z,840
2023-09-21T16:25:13.637Z,860
2023-09-21T16:26:29.759Z,848
2023-09-21T16:27:45.893Z,796
2023-09-21T16:29:02.036Z,696
2023-09-21T16:30:18.160Z,620
2023-09-21T16:31:34.286Z,612
2023-09-21T16:32:50.420Z,620
2023-09-21T16:34:06.561Z,596
2023-09-21T16:35:22.686Z,576
2023-09-21T16:36:38.000Z,576
2023-09-21T16:37:54.952Z,560
2023-09-21T16:39:10.108Z,524
2023-09-21T16:40:26.241Z,440
2023-09-21T16:41:42.368Z,364
2023-09-21T16:42:58.497Z,324
2023-09-21T16:44:14.625Z,316
2023-09-21T16:45:30.757Z,316
2023-09-21T16:46:46.000Z,304
2023-09-21T16:48:03.017Z,288
2023-09-21T16:49:19.159Z,268
2023-09-21T16:50:35.297Z,248
2023-09-21T16:51:51.427Z,228
2023-09-21T16:53:07.553Z,212
2023-09-21T16:54:23.691Z,196
2023-09-21T16:55:38.827Z,180
2023-09-21T16:56:54.972Z,160
2023-09-21T16:58:11.097Z,152
2023-09-21T16:59:27.227Z,160
2023-09-21T17:00:43.366Z,172
2023-09-21T17:01:59.491Z,184
2023-09-21T17:03:15.630Z,204
2023-09-21T17:04:31.764Z,220
2023-09-21T17:05:47.890Z,228
2023-09-21T17:07:04.023Z,212
2023-09-21T17:08:20.157Z,192
2023-09-21T17:09:36.290Z,192
2023-09-21T17:10:52.414Z,192
2023-09-21T17:12:07.569Z,176
2023-09-21T17:13:23.701Z,144
2023-09-21T17:14:39.822Z,108
2023-09-21T17:15:55.960Z,84
2023-09-21T17:17:12.100Z,72
2023-09-21T17:18:28.221Z,76
2023-09-21T17:19:44.357Z,92
2023-09-21T17:21:00.490Z,84
2023-09-21T17:22:16.627Z,60
2023-09-21T17:23:32.756Z,44
2023-09-21T17:24:48.887Z,32
2023-09-21T17:26:05.014Z,28
2023-09-21T17:27:21.154Z,32